MDT,Max TemperatureF,Mean TemperatureF,Min TemperatureF,Max Dew PointF,MeanDew PointF,Min DewpointF,Max Humidity, Mean Humidity, Min Humidity, Max Sea Level PressureIn, Mean Sea Level PressureIn, Min Sea Level PressureIn, Max VisibilityMiles, Mean VisibilityMiles, Min VisibilityMiles, Max Wind SpeedMPH, Mean Wind SpeedMPH, Max Gust SpeedMPH,PrecipitationIn, CloudCover, Events, WindDirDegrees
2013-9-1,84,75,68,56,53,50,54,44,36,30.08,29.94,29.83,10,10,10,14,7,,0.00,7,Rain,116
2013-9-2,81,74,66,63,60,54,88,67,43,30.14,30.04,29.86,10,10,2,17,7,,0.11,7,Rain-Thunderstorm,157
2013-9-3,83,74,64,62,58,56,83,67,44,30.16,30.00,29.86,10,10,10,22,10,29,0.05,4,Rain-Thunderstorm,5
2013-9-4,86,74,61,60,56,51,77,56,31,30.21,30.06,29.90,10,10,10,14,8,,0.00,1,,101
2013-9-5,90,80,70,58,52,48,63,39,24,30.17,29.96,29.87,10,10,10,14,8,22,0.00,3,,148
2013-9-6,91,80,68,56,51,48,62,41,24,30.16,29.98,29.85,10,10,10,20,10,32,0.02,4,Rain,113
2013-9-7,81,71,61,61,54,46,86,59,30,30.21,30.07,29.94,10,10,9,21,8,26,0.15,5,Rain,53
2013-9-8,73,66,59,57,55,53,82,73,53,30.15,30.03,29.88,10,10,8,14,5,20,0.19,6,Rain,136
2013-9-9,78,68,58,54,50,43,77,57,29,30.03,29.88,29.77,10,10,10,15,9,18,0.00,2,,63
2013-9-10,78,70,62,54,47,43,56,44,32,30.06,29.93,29.83,10,10,10,21,12,26,0.00,6,,92
2013-9-11,78,70,62,55,53,52,74,54,41,30.11,29.91,29.78,10,10,10,29,16,37,0.02,6,Rain-Thunderstorm,96
2013-9-12,78,70,62,54,50,44,72,55,31,30.15,29.97,29.78,10,10,10,26,13,38,0.03,5,Rain-Thunderstorm,116
2013-9-13,66,62,58,55,53,52,82,74,60,30.07,29.90,29.72,10,10,5,17,12,32,0.09,7,Rain,128
2013-9-14,68,62,57,58,53,50,82,77,64,30.02,29.95,29.76,10,9,2,13,7,,0.26,6,Rain,109
2013-9-15,77,68,59,55,53,52,82,63,44,30.10,30.05,30.02,10,10,10,15,6,20,0.00,3,Rain,148
2013-9-16,84,72,60,53,50,46,68,52,27,30.07,29.85,29.66,10,10,10,16,12,22,0.00,2,,120
2013-9-17,86,76,66,52,45,37,56,35,18,29.95,29.60,29.32,10,10,6,26,16,37,0.00,5,Rain-Thunderstorm,178
2013-9-18,65,59,51,48,37,31,66,45,29,30.09,29.86,29.55,10,10,10,18,10,28,0.00,1,,298
2013-9-19,67,56,45,34,30,25,61,40,21,30.14,30.07,30.01,10,10,10,17,9,26,0.00,0,,101
2013-9-20,79,62,45,42,32,27,51,35,19,30.02,29.91,29.76,10,10,10,23,13,29,0.00,0,,110
2013-9-21,83,72,62,36,33,29,35,25,14,29.75,29.63,29.47,10,10,10,26,14,34,0.00,1,,172
2013-9-22,71,64,55,42,36,32,53,35,26,29.85,29.59,29.47,10,10,10,16,11,23,0.00,3,,299
2013-9-23,65,57,49,37,35,32,56,43,30,30.11,29.97,29.80,10,10,10,10,4,,0.00,2,,89
2013-9-24,77,63,50,34,30,22,50,31,15,30.09,29.79,29.58,10,10,10,25,10,33,0.00,3,,136
2013-9-25,60,53,46,46,38,32,93,62,43,29.78,29.66,29.47,10,10,5,24,8,30,0.07,6,Rain,140
2013-9-26,51,46,42,37,35,32,81,68,56,29.87,29.77,29.69,10,10,10,17,11,24,0.00,5,Rain,104
2013-9-27,49,42,37,37,35,32,87,75,54,30.19,30.03,29.83,10,10,5,16,5,23,0.07,6,Rain,350
2013-9-28,62,50,37,33,29,26,74,49,26,30.23,30.16,30.06,10,10,10,12,5,,0.00,0,,112
2013-9-29,68,58,47,32,28,25,46,30,20,30.04,29.95,29.81,10,10,10,18,9,37,0.00,3,,178
2013-9-30,77,67,54,40,31,25,59,27,18,29.96,29.83,29.74,10,10,10,22,16,29,0.00,5,,217